METAR Data
IDs: Format: Raw Decoded Include TAF

Data at: 2330 UTC 25 Oct 2021

PPIZ 252256Z AUTO 08011KT 9SM -SN BKN047 OVC055 M04/M05 A2920 RMK AO2 SLP890 T10391050 FZRANO PNO $
PPIZ 252156Z AUTO 08012KT 6SM -SN BR FEW012 SCT030 OVC055 M04/M05 A2919 RMK AO2 SLP889 T10391050 FZRANO PNO $
PPIZ 252126Z AUTO 08012KT 9SM -SN FEW011 BKN050 OVC065 M04/M05 A2919 RMK AO2 FZRANO PNO $
PPIZ 252113Z AUTO 08012KT 9SM -SN SCT011 BKN018 OVC065 M04/M05 A2919 RMK AO2 FZRANO PNO $
PPIZ 252103Z AUTO 08011KT 9SM -SN BKN011 OVC016 M04/M05 A2919 RMK AO2 CIG 010V014 FZRANO PNO $
PPIZ 252056Z AUTO 08013KT 4SM -SN BR SCT011 OVC016 M04/M05 A2919 RMK AO2 SLP888 6//// T10441050 58005 FZRANO PNO $
PPIZ 252053Z AUTO 08012KT 2 1/2SM -SN BR BKN014 OVC023 M04/M05 A2919 RMK AO2 FZRANO PNO $
PPIZ 252047Z AUTO 08011KT 1 3/4SM -SN BR BKN017 OVC023 M04/M05 A2919 RMK AO2 FZRANO PNO $
PPIZ 252034Z AUTO 08012KT 5SM -SN BR SCT014 OVC021 M04/M05 A2919 RMK AO2 FZRANO PNO $
PPIZ 252021Z AUTO 08010KT 2SM -SN BR SCT008 SCT013 OVC020 M04/M05 A2919 RMK AO2 FZRANO PNO $
PPIZ 252019Z AUTO 08010KT 2SM -SN BR BKN011 OVC020 M04/M05 A2919 RMK AO2 FZRANO PNO $
PPIZ 252012Z AUTO 08011KT 1 3/4SM -SN BR BKN009 BKN014 OVC020 M04/M05 A2919 RMK AO2 CIG 007V011 FZRANO PNO $
PPIZ 252005Z AUTO 08010KT 1 3/4SM -SN BR SCT009 BKN013 OVC020 M04/M05 A2920 RMK AO2 FZRANO PNO $
PPIZ 251956Z AUTO 08009KT 1 1/2SM -SN BR BKN009 OVC016 M04/M05 A2920 RMK AO2 CIG 005V014 SLP890 T10441050 FZRANO PNO $
PPIZ 251931Z AUTO 07010KT 1 1/2SM -SN BR SCT009 OVC014 M04/M06 A2920 RMK AO2 FZRANO PNO $
PPIZ 251922Z AUTO 06010KT 1 1/4SM -SN BR BKN009 OVC016 M04/M06 A2920 RMK AO2 CIG 007V012 FZRANO PNO $
PPIZ 251913Z AUTO 06010KT 3/4SM -SN BR BKN009 OVC016 M05/M06 A2920 RMK AO2 CIG 007V014 FZRANO PNO $
PPIZ 251906Z AUTO 06009KT 3/4SM -SN BR SCT009 OVC016 M05/M06 A2920 RMK AO2 FZRANO PNO $
PPIZ 251856Z AUTO 05008KT 1SM -SN BR SCT011 BKN016 OVC023 M05/M06 A2920 RMK AO2 SLP892 T10501056 FZRANO PNO $
PPIZ 251845Z AUTO 05008KT 1 1/2SM -SN BR BKN016 OVC023 M05/M06 A2920 RMK AO2 FZRANO PNO $
PPIZ 251838Z AUTO 05008KT 2SM -SN BR FEW016 BKN023 OVC032 M05/M06 A2920 RMK AO2 FZRANO PNO $
PPIZ 251830Z AUTO 05009KT 1 3/4SM -SN BR FEW016 BKN023 OVC030 M06/M06 A2920 RMK AO2 FZRANO PNO $
PPIZ 251812Z AUTO 04009KT 2 1/2SM -SN BR BKN018 BKN027 OVC032 M06/M07 A2920 RMK AO2 FZRANO PNO $
PPIZ 251805Z AUTO 05008KT 3SM -SN BR OVC018 M06/M07 A2920 RMK AO2 FZRANO PNO $
PPIZ 251756Z AUTO 05009KT 2 1/2SM -SN BR OVC018 M06/M07 A2921 RMK AO2 SLP893 6//// T10611067 11061 21106 58009 FZRANO PNO $
PPIZ 251747Z AUTO 05009KT 2 1/2SM -SN BR OVC020 M07/M07 A2921 RMK AO2 FZRANO PNO $
PPIZ 251739Z AUTO 04008KT 3SM -SN BR OVC020 M07/M08 A2921 RMK AO2 FZRANO PNO $
PPIZ 251727Z AUTO 03006KT 2 1/2SM -SN BR OVC022 M07/M08 A2921 RMK AO2 FZRANO PNO $
PPIZ 251711Z AUTO 03007KT 4SM -SN BR BKN024 BKN030 OVC048 M08/M08 A2922 RMK AO2 FZRANO PNO $
PPIZ 251656Z AUTO 03004KT 9SM -SN SCT031 BKN047 OVC055 M08/M09 A2922 RMK AO2 SNB41 SLP898 T10831089 FZRANO PNO $
PPIZ 251556Z AUTO 10005KT 10SM BKN060 M09/M11 A2923 RMK AO2 SLP901 T10941106 FZRANO PNO $
PPIZ 251456Z AUTO 06006KT 10SM CLR M10/M11 A2923 RMK AO2 SLP902 6//// T11001111 58011 FZRANO PNO $
PPIZ 251356Z AUTO 08008KT 10SM FEW120 M11/M12 A2924 RMK AO2 SLP906 T11061117 FZRANO PNO $
PPIZ 251256Z AUTO 05007KT 10SM CLR M09/M11 A2926 RMK AO2 SLP912 T10941106 FZRANO PNO $
PPIZ 251156Z AUTO 06006KT 10SM BKN037 M07/M08 A2926 RMK AO2 SLP913 6//// 7//// T10721083 11044 21072 58010 FZRANO PNO $
PPIZ 251056Z AUTO 08004KT 10SM OVC039 M06/M07 A2928 RMK AO2 SLP917 T10611067 FZRANO PNO $
PPIZ 250956Z AUTO 04005KT 10SM OVC034 M06/M06 A2928 RMK AO2 SLP920 T10561061 FZRANO PNO $
PPIZ 250856Z AUTO 04005KT 10SM OVC038 M05/M06 A2929 RMK AO2 SNB24E47 SLP923 6//// T10501061 58006 FZRANO PNO $
PPIZ 250756Z AUTO 07005KT 10SM BKN033 BKN044 OVC070 M05/M06 A2930 RMK AO2 SNE43 SLP926 T10501061 410281050 FZRANO PNO $
PPIZ 250656Z AUTO 07008KT 10SM -SN OVC039 M04/M06 A2930 RMK AO2 SNB53 SLP926 T10441056 FZRANO PNO $
PPIZ 250556Z AUTO 07010KT 10SM OVC100 M05/M06 A2931 RMK AO2 SNE0459 SLP929 6//// T10501061 11028 21050 56012 FZRANO PNO $
PPIZ 250456Z AUTO 07010KT 9SM -SN FEW024 BKN110 M05/M06 A2932 RMK AO2 SLP932 T10501061 FZRANO PNO $
PPIZ 250356Z AUTO 07012KT 9SM -SN FEW041 SCT049 OVC060 M04/M06 A2933 RMK AO2 SLP937 T10441056 FZRANO PNO $
PPIZ 250256Z AUTO 06011KT 9SM -SN FEW009 BKN110 M04/M05 A2935 RMK AO2 SLP941 6//// T10391050 56013 FZRANO PNO $
PPIZ 250226Z AUTO 06013KT 9SM -SN FEW009 BKN034 BKN100 M04/M04 A2935 RMK AO2 FZRANO PNO $
PPIZ 250156Z AUTO 05013KT 6SM -SN BR SCT022 BKN043 OVC055 M03/M04 A2935 RMK AO2 SLP942 T10331044 FZRANO PNO $
PPIZ 250147Z AUTO 05013KT 4SM -SN BR SCT024 BKN034 OVC050 M03/M04 A2935 RMK AO2 FZRANO PNO $
PPIZ 250117Z AUTO 05014KT 9SM -SN SCT019 BKN024 OVC029 M03/M04 A2936 RMK AO2 FZRANO PNO $
PPIZ 250107Z AUTO 05013KT 4SM -SN BR SCT019 BKN031 OVC041 M03/M04 A2936 RMK AO2 FZRANO PNO $
PPIZ 250058Z AUTO 05013KT 2 1/2SM -SN BR BKN019 BKN030 OVC037 M03/M04 A2937 RMK AO2 FZRANO PNO $
PPIZ 250056Z AUTO 05014KT 3SM -SN BR SCT019 BKN028 OVC036 M03/M04 A2937 RMK AO2 SLP948 T10281039 FZRANO PNO $
PPIZ 250025Z AUTO 06015KT 3SM -SN BR FEW008 SCT026 OVC036 M03/M04 A2937 RMK AO2 FZRANO PNO $
PPIZ 250009Z AUTO 05015KT 2 1/2SM -SN BR FEW008 SCT022 OVC038 M03/M03 A2938 RMK AO2 FZRANO PNO $
PPIZ 242356Z AUTO 05014KT 2 1/2SM -SN BR FEW025 BKN036 OVC045 M03/M03 A2938 RMK AO2 VIS 2V3 SLP954 6//// T10281033 11028 21033 56010 FZRANO PNO $
PPIZ 242256Z AUTO 05012KT 4SM -SN BR FEW005 BKN041 OVC055 M03/M03 A2940 RMK AO2 SLP959 T10281033 FZRANO PNO $
PPIZ 242204Z AUTO 05012KT 7SM -SN FEW003 OVC013 M03/M03 A2941 RMK AO2 FZRANO PNO $
PPIZ 242156Z AUTO 05013KT 8SM -SN SCT003 OVC015 M03/M03 A2942 RMK AO2 SLP964 T10281033 FZRANO PNO $
PPIZ 242154Z AUTO 05014KT 9SM -SN SCT003 OVC015 M03/M03 A2941 RMK AO2 FZRANO PNO $
PPIZ 242056Z AUTO 04012KT 4SM -SN BR BKN003 BKN030 OVC055 M03/M04 A2942 RMK AO2 SLP967 6//// T10331039 57011 FZRANO PNO $
PPIZ 242049Z AUTO 04013KT 4SM -SN BR BKN003 BKN013 OVC055 M03/M04 A2942 RMK AO2 FZRANO PNO $
PPIZ 242016Z AUTO 04011KT 6SM -SN BR FEW003 OVC035 M03/M04 A2943 RMK AO2 FZRANO PNO $
PPIZ 241956Z AUTO 04011KT 5SM -SN BR OVC035 M03/M04 A2943 RMK AO2 SNE1858B39 SLP970 T10331039 FZRANO PNO $
PPIZ 241856Z AUTO 04009KT 4SM -SN BR FEW004 OVC031 M03/M04 A2945 RMK AO2 SNB47 SLP975 T10331039 FZRANO PNO $
PPIZ 241832Z AUTO 04010KT 6SM BR SCT003 SCT021 OVC031 M03/M04 A2945 RMK AO2 FZRANO PNO $
PPIZ 241756Z AUTO 04010KT 4SM BR OVC003 M03/M04 A2946 RMK AO2 SLP978 6//// T10331039 11033 21039 58007 FZRANO PNO $
PPIZ 241721Z AUTO 04009KT 4SM BR OVC002 M03/M04 A2946 RMK AO2 CIG 002V007 FZRANO PNO $
PPIZ 241711Z AUTO 04010KT 5SM BR BKN005 OVC020 M03/M04 A2946 RMK AO2 CIG 002V007 FZRANO PNO $
PPIZ 241656Z AUTO 04009KT 10SM SCT005 SCT014 OVC020 M03/M04 A2947 RMK AO2 SLP981 T10331039 FZRANO PNO $
PPIZ 241646Z AUTO 04008KT 10SM SCT005 SCT014 OVC020 M03/M04 A2947 RMK AO2 FZRANO PNO $
PPIZ 241556Z AUTO 03007KT 9SM OVC005 M03/M04 A2948 RMK AO2 SNB18E54 SLP985 T10331039 FZRANO PNO $
PPIZ 241553Z AUTO 03007KT 9SM -SN OVC005 M03/M04 A2948 RMK AO2 SNB18 FZRANO PNO $
PPIZ 241539Z AUTO 03007KT 7SM -SN OVC007 M03/M04 A2948 RMK AO2 SNB18 CIG 004V009 FZRANO PNO $
PPIZ 241514Z AUTO 03007KT 10SM FEW003 BKN010 OVC022 M03/M04 A2948 RMK AO2 CIG 008V014 FZRANO PNO $
PPIZ 241456Z AUTO 04007KT 8SM SCT003 OVC009 M03/M04 A2949 RMK AO2 CIG 007V014 SLP988 6//// T10331039 57003 FZRANO PNO $
PPIZ 241445Z AUTO 03008KT 10SM FEW003 BKN009 OVC015 M03/M04 A2949 RMK AO2 CIG 006V011 FZRANO PNO $
PPIZ 241440Z AUTO 03008KT 10SM BKN011 OVC017 M03/M04 A2949 RMK AO2 CIG 009V013 FZRANO PNO $
PPIZ 241432Z AUTO 03008KT 9SM BKN009 OVC017 M03/M04 A2948 RMK AO2 CIG 005V012 FZRANO PNO $
PPIZ 241425Z AUTO 03008KT 8SM FEW003 SCT007 OVC017 M03/M04 A2949 RMK AO2 FZRANO PNO $
PPIZ 241356Z AUTO 03008KT 7SM BKN005 OVC011 M03/M04 A2949 RMK AO2 CIG 003V007 SLP989 T10331039 FZRANO PNO $
PPIZ 241256Z AUTO 03008KT 8SM OVC009 M03/M04 A2949 RMK AO2 SLP991 T10331044 FZRANO PNO $
PPIZ 241236Z AUTO 03008KT 10SM BKN009 BKN015 OVC021 M04/M04 A2950 RMK AO2 FZRANO PNO $
PPIZ 241156Z AUTO 02008KT 10SM OVC021 M04/M04 A2950 RMK AO2 SLP991 6//// 7//// T10391044 11033 21039 55000 FZRANO PNO $
PPIZ 241145Z AUTO 02008KT 10SM SCT013 OVC023 M04/M04 A2950 RMK AO2 FZRANO PNO $